createdAt,value
2018-05-14T00:01:12.408Z,20.11
2018-05-14T00:03:40.004Z,20.08
2018-05-14T00:06:07.492Z,20.07
2018-05-14T00:08:35.015Z,20.04
2018-05-14T00:11:02.624Z,20.01
2018-05-14T00:13:30.172Z,19.99
2018-05-14T00:15:57.728Z,20.00
2018-05-14T00:18:25.260Z,19.97
2018-05-14T00:20:52.851Z,19.98
2018-05-14T00:23:20.412Z,19.85
2018-05-14T00:25:47.935Z,19.81
2018-05-14T00:28:15.467Z,19.80
2018-05-14T00:30:43.091Z,19.80
2018-05-14T00:33:10.647Z,19.79
2018-05-14T00:35:38.176Z,19.72
2018-05-14T00:38:05.707Z,19.70
2018-05-14T00:40:33.229Z,19.69
2018-05-14T00:43:00.755Z,19.68
2018-05-14T00:45:28.286Z,19.68
2018-05-14T00:47:55.895Z,19.67
2018-05-14T00:50:23.415Z,19.67
2018-05-14T00:52:50.960Z,19.64
2018-05-14T00:55:18.489Z,19.59
2018-05-14T00:57:46.013Z,19.54
2018-05-14T01:00:13.538Z,19.55
2018-05-14T01:02:41.684Z,19.56
2018-05-14T01:05:09.211Z,19.54
2018-05-14T01:07:36.801Z,19.50
2018-05-14T01:10:04.358Z,19.48
2018-05-14T01:12:31.878Z,19.46
2018-05-14T01:14:59.408Z,19.40
2018-05-14T01:17:26.935Z,19.36
2018-05-14T01:19:54.460Z,19.33
2018-05-14T01:22:21.985Z,19.31
2018-05-14T01:24:55.008Z,19.30
2018-05-14T01:27:22.536Z,19.29
2018-05-14T01:29:50.157Z,19.29
2018-05-14T01:32:17.693Z,19.28
2018-05-14T01:34:47.455Z,19.24
2018-05-14T01:37:15.090Z,19.18
2018-05-14T01:39:42.623Z,19.19
2018-05-14T01:42:10.144Z,19.17
2018-05-14T01:44:37.773Z,19.16
2018-05-14T01:47:05.293Z,19.17
2018-05-14T01:49:32.855Z,19.13
2018-05-14T01:52:00.383Z,19.14
2018-05-14T01:54:28.015Z,19.09
2018-05-14T01:56:55.578Z,19.06
2018-05-14T01:59:23.119Z,19.07
2018-05-14T02:01:50.690Z,19.04
2018-05-14T02:04:18.218Z,19.05
2018-05-14T02:06:45.818Z,19.00
2018-05-14T02:09:13.362Z,19.03
2018-05-14T02:11:40.933Z,18.94
2018-05-14T02:14:08.461Z,18.95
2018-05-14T02:16:36.039Z,18.98
2018-05-14T02:19:03.548Z,18.85
2018-05-14T02:21:31.161Z,18.85
2018-05-14T02:23:58.675Z,18.86
2018-05-14T02:26:26.224Z,18.79
2018-05-14T02:28:53.736Z,18.81
2018-05-14T02:31:21.283Z,18.73
2018-05-14T02:33:48.813Z,18.80
2018-05-14T02:36:16.410Z,18.76
2018-05-14T02:38:43.977Z,18.76
2018-05-14T02:41:11.537Z,18.64
2018-05-14T02:43:39.049Z,18.59
2018-05-14T02:46:06.569Z,18.59
2018-05-14T02:48:34.094Z,18.61
2018-05-14T02:51:01.689Z,18.53
2018-05-14T02:53:29.247Z,18.51
2018-05-14T02:55:56.803Z,18.51
2018-05-14T02:58:24.332Z,18.55
2018-05-14T03:00:51.852Z,18.51
2018-05-14T03:03:19.423Z,18.53
2018-05-14T03:05:46.977Z,18.52
2018-05-14T03:08:14.502Z,18.44
2018-05-14T03:10:42.027Z,18.43
2018-05-14T03:13:09.630Z,18.35
2018-05-14T03:15:37.157Z,18.27
2018-05-14T03:18:04.749Z,18.24
2018-05-14T03:20:32.260Z,18.22
2018-05-14T03:22:59.866Z,18.22
2018-05-14T03:25:27.412Z,18.15
2018-05-14T03:27:54.938Z,18.11
2018-05-14T03:30:22.567Z,18.11
2018-05-14T03:32:50.095Z,18.07
2018-05-14T03:35:17.627Z,18.09
2018-05-14T03:37:45.170Z,18.10
2018-05-14T03:40:12.714Z,18.05
2018-05-14T03:42:40.228Z,18.11
2018-05-14T03:45:07.756Z,18.08
2018-05-14T03:47:35.291Z,17.97
2018-05-14T03:50:02.923Z,18.05
2018-05-14T03:52:30.441Z,18.08
2018-05-14T03:54:57.969Z,17.98
2018-05-14T03:57:25.501Z,17.96
2018-05-14T04:00:04.760Z,17.90
2018-05-14T04:02:44.056Z,17.92
2018-05-14T04:05:20.157Z,17.92
2018-05-14T04:07:47.696Z,17.85
2018-05-14T04:10:15.220Z,17.90
2018-05-14T04:12:42.765Z,17.89
2018-05-14T04:15:10.293Z,17.87
2018-05-14T04:17:37.828Z,17.85
2018-05-14T04:20:05.361Z,17.88
2018-05-14T04:22:32.872Z,17.90
2018-05-14T04:25:00.407Z,17.87
2018-05-14T04:27:27.934Z,17.90
2018-05-14T04:29:55.453Z,17.94
2018-05-14T04:32:22.985Z,17.94
2018-05-14T04:34:50.525Z,17.97
2018-05-14T04:37:18.066Z,17.94
2018-05-14T04:39:45.592Z,18.02
2018-05-14T04:42:13.103Z,17.94
2018-05-14T04:44:40.665Z,18.01
2018-05-14T04:47:08.196Z,18.07
2018-05-14T04:49:35.737Z,18.09
2018-05-14T04:52:03.289Z,18.05
2018-05-14T04:54:30.813Z,18.11
2018-05-14T04:56:58.352Z,18.12
2018-05-14T04:59:25.865Z,18.14
2018-05-14T05:01:53.392Z,18.14
2018-05-14T05:04:20.919Z,18.16
2018-05-14T05:06:48.440Z,18.02
2018-05-14T05:09:15.972Z,18.23
2018-05-14T05:11:43.499Z,18.32
2018-05-14T05:14:11.060Z,18.19
2018-05-14T05:16:38.588Z,18.32
2018-05-14T05:19:06.148Z,18.41
2018-05-14T05:21:33.759Z,18.42
2018-05-14T05:24:01.293Z,18.43
2018-05-14T05:26:28.832Z,18.51
2018-05-14T05:28:56.357Z,18.71
2018-05-14T05:31:23.878Z,18.73
2018-05-14T05:33:51.407Z,18.83
2018-05-14T05:36:18.932Z,18.78
2018-05-14T05:38:46.490Z,18.88
2018-05-14T05:41:14.021Z,18.96
2018-05-14T05:43:41.543Z,19.08
2018-05-14T05:46:09.167Z,19.09
2018-05-14T05:48:36.716Z,19.20
2018-05-14T05:51:04.259Z,19.38
2018-05-14T05:53:31.800Z,19.20
2018-05-14T05:55:59.331Z,19.38
2018-05-14T05:58:26.842Z,19.62
2018-05-14T06:00:54.359Z,19.70
2018-05-14T06:03:21.984Z,19.77
2018-05-14T06:05:49.515Z,19.96
2018-05-14T06:08:17.067Z,20.18
2018-05-14T06:10:44.664Z,20.33
2018-05-14T06:13:12.211Z,20.45
2018-05-14T06:15:39.790Z,20.52
2018-05-14T06:18:07.314Z,20.58
2018-05-14T06:20:34.838Z,21.25
2018-05-14T06:23:02.352Z,21.38
2018-05-14T06:25:29.875Z,21.53
2018-05-14T06:27:57.393Z,21.62
2018-05-14T06:30:24.941Z,22.16
2018-05-14T06:32:52.468Z,22.14
2018-05-14T06:35:20.032Z,22.61
2018-05-14T06:37:47.562Z,21.81
2018-05-14T06:40:15.098Z,22.59
2018-05-14T06:42:42.623Z,23.30
2018-05-14T06:45:10.157Z,23.61
2018-05-14T06:47:37.701Z,23.46
2018-05-14T06:50:05.223Z,23.49
2018-05-14T06:52:32.831Z,23.63
2018-05-14T06:55:00.300Z,23.86
2018-05-14T06:57:27.899Z,24.68
2018-05-14T06:59:55.444Z,24.57
2018-05-14T07:02:22.968Z,24.60
2018-05-14T07:04:50.579Z,24.53
2018-05-14T07:07:18.096Z,24.58
2018-05-14T07:09:45.684Z,24.66
2018-05-14T07:12:13.226Z,25.23
2018-05-14T07:14:40.818Z,25.74
2018-05-14T07:17:08.347Z,26.16
2018-05-14T07:19:35.865Z,26.29
2018-05-14T07:22:03.504Z,26.28
2018-05-14T07:24:31.028Z,26.09
2018-05-14T07:26:58.555Z,26.23
2018-05-14T07:29:26.189Z,26.31
2018-05-14T07:31:53.840Z,26.31
2018-05-14T07:34:21.386Z,27.07
2018-05-14T07:36:48.928Z,26.95
2018-05-14T07:39:16.448Z,26.93
2018-05-14T07:41:43.979Z,26.70
2018-05-14T07:44:11.509Z,26.36
2018-05-14T07:46:39.033Z,26.84
2018-05-14T07:49:06.596Z,27.24
2018-05-14T07:51:34.218Z,27.45
2018-05-14T07:54:01.743Z,26.30
2018-05-14T07:56:29.338Z,27.22
2018-05-14T07:58:56.861Z,27.10
2018-05-14T08:01:24.396Z,28.28
2018-05-14T08:03:51.952Z,28.96
2018-05-14T08:06:19.485Z,27.94
2018-05-14T08:08:47.164Z,29.12
2018-05-14T08:11:14.711Z,29.14
2018-05-14T08:13:42.243Z,29.79
2018-05-14T08:16:09.767Z,30.34
2018-05-14T08:18:37.289Z,31.13
2018-05-14T08:21:04.822Z,31.74
2018-05-14T08:23:32.399Z,31.57
2018-05-14T08:25:59.924Z,30.50
2018-05-14T08:28:27.445Z,30.92
2018-05-14T08:30:54.969Z,31.61
2018-05-14T08:33:22.499Z,31.83
2018-05-14T08:35:50.061Z,33.24
2018-05-14T08:38:17.576Z,32.67
2018-05-14T08:40:45.129Z,31.46
2018-05-14T08:43:12.645Z,30.53
2018-05-14T08:45:40.232Z,32.86
2018-05-14T08:48:07.861Z,32.68
2018-05-14T08:50:35.356Z,33.31
2018-05-14T08:53:02.923Z,33.56
2018-05-14T08:55:30.452Z,32.37
2018-05-14T08:57:57.995Z,33.64
2018-05-14T09:00:25.512Z,34.15
2018-05-14T09:02:53.151Z,34.71
2018-05-14T09:05:20.676Z,34.48
2018-05-14T09:07:48.204Z,34.32
2018-05-14T09:10:15.833Z,34.66
2018-05-14T09:12:43.393Z,35.94
2018-05-14T09:15:10.919Z,33.13
2018-05-14T09:17:38.512Z,33.69
2018-05-14T09:20:06.036Z,34.63
2018-05-14T09:22:33.550Z,36.53
2018-05-14T09:25:01.192Z,34.39
2018-05-14T09:27:28.756Z,35.18
2018-05-14T09:29:56.317Z,35.05
2018-05-14T09:32:23.972Z,34.62
2018-05-14T09:34:51.533Z,34.94
2018-05-14T09:37:19.154Z,34.34
2018-05-14T09:39:46.652Z,35.43
2018-05-14T09:42:14.203Z,35.27
2018-05-14T09:44:41.728Z,33.06
2018-05-14T09:47:09.333Z,34.67
2018-05-14T09:49:36.851Z,31.48
2018-05-14T09:52:04.388Z,31.41
2018-05-14T09:54:31.909Z,33.92
2018-05-14T09:56:59.439Z,35.93
2018-05-14T09:59:26.959Z,34.25
2018-05-14T10:01:54.488Z,33.84
2018-05-14T10:04:22.003Z,34.43
2018-05-14T10:06:49.559Z,35.99
2018-05-14T10:09:17.151Z,36.33
2018-05-14T10:11:44.686Z,35.22
2018-05-14T10:14:12.361Z,35.71
2018-05-14T10:16:39.893Z,32.25
2018-05-14T10:19:07.440Z,34.25
2018-05-14T10:21:34.966Z,33.24
2018-05-14T10:24:02.527Z,32.99
2018-05-14T10:26:30.053Z,33.45
2018-05-14T10:28:57.578Z,34.39
2018-05-14T10:31:25.103Z,35.29
2018-05-14T10:33:52.633Z,34.08
2018-05-14T10:36:20.225Z,33.07
2018-05-14T10:38:47.752Z,33.23
2018-05-14T10:41:15.277Z,31.31
2018-05-14T10:43:42.837Z,30.04
2018-05-14T10:46:10.362Z,31.82
2018-05-14T10:48:37.878Z,30.91
2018-05-14T10:51:05.450Z,29.07
2018-05-14T10:53:32.968Z,27.89
2018-05-14T10:56:00.484Z,28.22
2018-05-14T10:58:28.017Z,28.28
2018-05-14T11:00:55.620Z,27.34
2018-05-14T11:03:23.148Z,27.43
2018-05-14T11:05:50.662Z,26.87
2018-05-14T11:08:18.359Z,26.80
2018-05-14T11:10:45.886Z,26.82
2018-05-14T11:13:13.453Z,26.49
2018-05-14T11:15:41.087Z,25.64
2018-05-14T11:18:08.603Z,25.52
2018-05-14T11:20:36.145Z,25.77
2018-05-14T11:23:03.688Z,25.72
2018-05-14T11:25:31.218Z,25.49
2018-05-14T11:27:58.780Z,25.40
2018-05-14T11:30:26.308Z,25.71
2018-05-14T11:32:53.853Z,25.90
2018-05-14T11:35:21.429Z,25.50
2018-05-14T11:37:49.247Z,25.40
2018-05-14T11:40:16.871Z,25.56
2018-05-14T11:42:44.744Z,25.57
2018-05-14T11:45:12.275Z,25.09
2018-05-14T11:47:39.828Z,25.33
2018-05-14T11:50:07.371Z,25.33
2018-05-14T11:52:34.890Z,24.92
2018-05-14T11:55:02.449Z,25.21
2018-05-14T11:57:30.010Z,24.73
2018-05-14T11:59:57.569Z,25.00
2018-05-14T12:02:25.129Z,25.01
2018-05-14T12:04:52.657Z,24.69
2018-05-14T12:07:20.217Z,24.96
2018-05-14T12:09:47.881Z,24.99
2018-05-14T12:12:15.500Z,24.65
2018-05-14T12:14:43.020Z,24.86
2018-05-14T12:17:10.549Z,24.69
2018-05-14T12:19:38.136Z,24.70
2018-05-14T12:22:05.712Z,24.56
2018-05-14T12:24:33.236Z,24.65
2018-05-14T12:27:00.785Z,24.66
2018-05-14T12:29:28.311Z,24.68
2018-05-14T12:31:55.852Z,24.73
2018-05-14T12:34:23.376Z,24.72
2018-05-14T12:36:50.901Z,24.62
2018-05-14T12:39:18.422Z,24.47
2018-05-14T12:41:45.934Z,24.50
2018-05-14T12:44:13.478Z,24.43
2018-05-14T12:46:41.006Z,24.43
2018-05-14T12:49:08.547Z,24.47
2018-05-14T12:51:36.082Z,24.08
2018-05-14T12:54:03.607Z,24.21
2018-05-14T12:56:31.149Z,24.16
2018-05-14T12:58:58.668Z,24.31
2018-05-14T13:01:26.240Z,24.27
2018-05-14T13:03:53.764Z,24.47
2018-05-14T13:06:21.300Z,24.43
2018-05-14T13:08:48.882Z,24.28
2018-05-14T13:11:16.399Z,24.31
2018-05-14T13:13:43.920Z,24.30
2018-05-14T13:16:11.441Z,24.37
2018-05-14T13:18:38.981Z,24.41
2018-05-14T13:21:06.497Z,24.33
2018-05-14T13:23:34.025Z,24.14
2018-05-14T13:26:01.555Z,24.13
2018-05-14T13:28:29.080Z,24.17
2018-05-14T13:30:56.628Z,24.33
2018-05-14T13:33:24.160Z,24.46
2018-05-14T13:35:51.692Z,24.34
2018-05-14T13:38:19.215Z,24.44
2018-05-14T13:40:46.748Z,24.29
2018-05-14T13:43:14.297Z,24.22
2018-05-14T13:45:41.832Z,24.26
2018-05-14T13:48:09.356Z,24.25
2018-05-14T13:50:36.881Z,24.41
2018-05-14T13:53:04.407Z,24.36
2018-05-14T13:55:31.930Z,24.34
2018-05-14T13:57:59.449Z,24.30
2018-05-14T14:00:26.967Z,24.23
2018-05-14T14:02:54.481Z,24.19
2018-05-14T14:05:22.004Z,24.15
2018-05-14T14:07:49.531Z,24.17
2018-05-14T14:10:17.054Z,24.17
2018-05-14T14:12:44.600Z,24.18
2018-05-14T14:15:12.111Z,24.23
2018-05-14T14:17:39.668Z,24.24
2018-05-14T14:20:07.193Z,24.27
2018-05-14T14:22:34.762Z,24.09
2018-05-14T14:25:02.327Z,24.10
2018-05-14T14:27:29.945Z,23.98
2018-05-14T14:29:57.500Z,23.91
2018-05-14T14:32:25.028Z,24.02
2018-05-14T14:34:52.552Z,23.82
2018-05-14T14:37:20.177Z,23.92
2018-05-14T14:39:47.753Z,23.95
2018-05-14T14:42:15.403Z,23.94
2018-05-14T14:44:42.927Z,23.85
2018-05-14T14:47:10.523Z,23.85
2018-05-14T14:49:38.078Z,23.82
2018-05-14T14:52:05.605Z,23.79
2018-05-14T14:54:33.158Z,23.87
2018-05-14T14:57:00.692Z,23.92
2018-05-14T14:59:28.237Z,23.96
2018-05-14T15:01:55.873Z,23.87
2018-05-14T15:04:23.414Z,23.96
2018-05-14T15:06:50.964Z,23.94
2018-05-14T15:09:18.488Z,23.86
2018-05-14T15:11:46.008Z,23.80
2018-05-14T15:14:13.535Z,23.77
2018-05-14T15:16:41.079Z,23.86
2018-05-14T15:19:08.636Z,23.81
2018-05-14T15:21:36.264Z,23.80
2018-05-14T15:24:03.931Z,23.82
2018-05-14T15:26:31.453Z,23.80
2018-05-14T15:28:59.017Z,23.86
2018-05-14T15:31:26.543Z,23.83
2018-05-14T15:33:54.163Z,23.70
2018-05-14T15:36:21.713Z,23.69
2018-05-14T15:38:49.242Z,23.67
2018-05-14T15:41:16.786Z,23.74
2018-05-14T15:43:44.341Z,23.67
2018-05-14T15:46:11.888Z,23.56
2018-05-14T15:48:39.403Z,23.69
2018-05-14T15:51:06.937Z,23.61
2018-05-14T15:53:34.494Z,23.59
2018-05-14T15:56:02.014Z,23.50
2018-05-14T15:58:29.650Z,23.59
2018-05-14T16:00:57.219Z,23.63
2018-05-14T16:03:24.751Z,23.55
2018-05-14T16:05:52.282Z,23.59
2018-05-14T16:08:19.808Z,23.62
2018-05-14T16:10:47.344Z,23.48
2018-05-14T16:13:14.926Z,23.49
2018-05-14T16:15:42.464Z,23.37
2018-05-14T16:18:10.045Z,23.40
2018-05-14T16:20:37.604Z,23.34
2018-05-14T16:23:05.128Z,23.37
2018-05-14T16:25:32.724Z,23.34
2018-05-14T16:28:00.264Z,23.36
2018-05-14T16:30:27.792Z,23.35
2018-05-14T16:32:55.308Z,23.25
2018-05-14T16:35:22.863Z,23.26
2018-05-14T16:37:50.394Z,23.18
2018-05-14T16:40:17.908Z,23.19
2018-05-14T16:42:45.558Z,23.16
2018-05-14T16:45:13.107Z,23.09
2018-05-14T16:47:40.634Z,23.05
2018-05-14T16:50:08.148Z,23.02
2018-05-14T16:52:35.678Z,23.00
2018-05-14T16:55:03.237Z,22.99
2018-05-14T16:57:30.768Z,22.94
2018-05-14T16:59:58.300Z,22.94
2018-05-14T17:02:25.845Z,22.95
2018-05-14T17:04:53.392Z,22.94
2018-05-14T17:07:20.917Z,22.92
2018-05-14T17:09:48.464Z,22.86
2018-05-14T17:12:16.060Z,22.84
2018-05-14T17:14:43.585Z,22.77
2018-05-14T17:17:11.099Z,22.78
2018-05-14T17:19:38.631Z,22.78
2018-05-14T17:22:06.176Z,22.80
2018-05-14T17:24:33.706Z,22.81
2018-05-14T17:27:01.236Z,22.71
2018-05-14T17:29:28.772Z,22.73
2018-05-14T17:31:56.300Z,22.69
2018-05-14T17:34:23.819Z,22.71
2018-05-14T17:36:51.347Z,22.66
2018-05-14T17:39:18.877Z,22.61
2018-05-14T17:41:46.416Z,22.59
2018-05-14T17:44:13.945Z,22.54
2018-05-14T17:46:41.463Z,22.45
2018-05-14T17:49:08.983Z,22.44
2018-05-14T17:51:36.504Z,22.39
2018-05-14T17:54:04.033Z,22.37
2018-05-14T17:56:31.547Z,22.36
2018-05-14T17:58:59.079Z,22.34
2018-05-14T18:01:26.977Z,22.32
2018-05-14T18:03:54.510Z,22.26
2018-05-14T18:06:22.032Z,22.23
2018-05-14T18:08:49.548Z,22.23
2018-05-14T18:11:17.085Z,22.25
2018-05-14T18:13:44.615Z,22.22
2018-05-14T18:16:12.155Z,22.08
2018-05-14T18:18:39.684Z,22.08
2018-05-14T18:21:12.112Z,22.02
2018-05-14T18:23:45.224Z,22.00
2018-05-14T18:26:17.671Z,21.93
2018-05-14T18:28:49.030Z,21.92
2018-05-14T18:31:22.322Z,21.88
2018-05-14T18:33:49.820Z,21.85
2018-05-14T18:36:20.036Z,21.78
2018-05-14T18:38:47.571Z,21.77
2018-05-14T18:41:15.099Z,21.80
2018-05-14T18:43:42.740Z,21.73
2018-05-14T18:46:10.367Z,21.66
2018-05-14T18:48:37.891Z,21.57
2018-05-14T18:51:05.430Z,21.54
2018-05-14T18:53:32.976Z,21.54
2018-05-14T18:56:00.500Z,21.50
2018-05-14T18:58:28.066Z,21.44
2018-05-14T19:00:55.590Z,21.42
2018-05-14T19:03:23.115Z,21.42
2018-05-14T19:05:50.708Z,21.36
2018-05-14T19:08:18.304Z,21.37
2018-05-14T19:10:51.575Z,21.31
2018-05-14T19:13:19.264Z,21.25
2018-05-14T19:15:52.375Z,21.24
2018-05-14T19:18:20.016Z,21.17
2018-05-14T19:20:47.543Z,21.14
2018-05-14T19:23:20.786Z,21.12
2018-05-14T19:25:48.308Z,21.09
2018-05-14T19:31:19.729Z,21.03
2018-05-14T19:33:52.895Z,20.96
2018-05-14T19:36:20.404Z,21.00
2018-05-14T19:38:47.928Z,20.99
2018-05-14T19:41:15.469Z,20.91
2018-05-14T19:43:42.979Z,20.90
2018-05-14T19:46:10.509Z,20.89
2018-05-14T19:48:38.038Z,20.81
2018-05-14T19:51:05.556Z,20.78
2018-05-14T19:53:33.086Z,20.80
2018-05-14T19:56:00.623Z,20.73
2018-05-14T19:58:28.144Z,20.70
2018-05-14T20:00:55.672Z,20.73
2018-05-14T20:03:23.243Z,20.70
2018-05-14T20:05:50.792Z,20.70
2018-05-14T20:08:18.394Z,20.63
2018-05-14T20:10:45.937Z,20.61
2018-05-14T20:13:13.459Z,20.56
2018-05-14T20:15:41.922Z,20.54
2018-05-14T20:18:09.449Z,20.49
2018-05-14T20:20:36.968Z,20.44
2018-05-14T20:23:04.491Z,20.41
2018-05-14T20:25:32.012Z,20.41
2018-05-14T20:27:59.557Z,20.37
2018-05-14T20:30:27.077Z,20.39
2018-05-14T20:32:54.605Z,20.34
2018-05-14T20:35:22.120Z,20.33
2018-05-14T20:37:49.658Z,20.27
2018-05-14T20:40:17.177Z,20.29
2018-05-14T20:42:44.702Z,20.25
2018-05-14T20:45:12.233Z,20.23
2018-05-14T20:47:39.760Z,20.15
2018-05-14T20:50:07.285Z,20.15
2018-05-14T20:52:34.832Z,20.13
2018-05-14T20:55:02.363Z,20.09
2018-05-14T20:57:29.883Z,20.11
2018-05-14T20:59:57.406Z,19.99
2018-05-14T21:02:24.947Z,20.02
2018-05-14T21:04:52.491Z,20.00
2018-05-14T21:07:20.016Z,19.90
2018-05-14T21:09:47.545Z,19.92
2018-05-14T21:12:15.077Z,19.88
2018-05-14T21:14:42.625Z,19.75
2018-05-14T21:17:10.157Z,19.76
2018-05-14T21:19:37.687Z,19.70
2018-05-14T21:22:05.233Z,19.64
2018-05-14T21:24:32.756Z,19.62
2018-05-14T21:27:00.273Z,19.53
2018-05-14T21:29:27.808Z,19.57
2018-05-14T21:31:55.321Z,19.54
2018-05-14T21:34:22.864Z,19.48
2018-05-14T21:36:50.441Z,19.49
2018-05-14T21:39:17.965Z,19.37
2018-05-14T21:41:45.489Z,19.35
2018-05-14T21:44:13.024Z,19.37
2018-05-14T21:46:40.544Z,19.37
2018-05-14T21:49:08.072Z,19.33
2018-05-14T21:51:35.606Z,19.32
2018-05-14T21:54:03.128Z,19.26
2018-05-14T21:56:30.679Z,19.30
2018-05-14T21:58:58.231Z,19.29
2018-05-14T22:01:25.772Z,19.29
2018-05-14T22:03:53.297Z,19.16
2018-05-14T22:06:20.817Z,19.10
2018-05-14T22:08:48.359Z,19.11
2018-05-14T22:11:15.904Z,19.16
2018-05-14T22:13:43.443Z,19.15
2018-05-14T22:16:10.985Z,19.13
2018-05-14T22:18:38.508Z,19.11
2018-05-14T22:21:06.028Z,19.04
2018-05-14T22:23:33.557Z,18.94
2018-05-14T22:26:01.093Z,18.93
2018-05-14T22:28:28.623Z,18.87
2018-05-14T22:30:56.140Z,18.92
2018-05-14T22:33:23.701Z,18.91
2018-05-14T22:35:51.242Z,18.89
2018-05-14T22:38:18.772Z,18.86
2018-05-14T22:40:46.294Z,18.85
2018-05-14T22:43:13.812Z,18.72
2018-05-14T22:45:41.359Z,18.74
2018-05-14T22:48:08.899Z,18.75
2018-05-14T22:50:36.424Z,18.73
2018-05-14T22:53:03.957Z,18.65
2018-05-14T22:55:31.482Z,18.63
2018-05-14T22:57:59.000Z,18.63
2018-05-14T23:00:27.439Z,18.62
2018-05-14T23:02:54.978Z,18.60
2018-05-14T23:05:22.520Z,18.56
2018-05-14T23:07:50.046Z,18.53
2018-05-14T23:10:17.593Z,18.51
2018-05-14T23:12:45.111Z,18.48
2018-05-14T23:15:12.637Z,18.45
2018-05-14T23:17:40.163Z,18.40
2018-05-14T23:20:07.707Z,18.38
2018-05-14T23:22:44.035Z,18.32
2018-05-14T23:25:11.571Z,18.29
2018-05-14T23:27:39.097Z,18.24
2018-05-14T23:30:06.632Z,18.21
2018-05-14T23:32:34.151Z,18.19
2018-05-14T23:35:01.675Z,18.16
2018-05-14T23:37:29.206Z,18.13
2018-05-14T23:39:56.725Z,18.07
2018-05-14T23:42:24.255Z,18.06
2018-05-14T23:44:51.791Z,18.03
2018-05-14T23:47:19.315Z,17.96
2018-05-14T23:49:46.845Z,17.92
2018-05-14T23:52:14.366Z,17.90
2018-05-14T23:54:41.880Z,17.86
2018-05-14T23:57:09.396Z,17.80
2018-05-14T23:59:36.907Z,17.76
